Disclaimer

Please do not use the information listed here in-flight or in-navigation, as they are not provided to us by the airports but are provided by volunteers, so they might be outdated.

Search


Regions


Airport information page

Radio informations:
Tower (TWR) - 118.5 MHz
ARRIVAL - 123.575 MHz
RAPCON WEST - 123.575 MHz

Airport informations:
Latitude: 51° 26' 56.73" N
Longitude: 004° 20' 31.31" E
Elevation: 63 feet - 19 meters
Operating hours: Remarks
Operating agency: Military
Timezone: UTC+1(+2DT) - Last Sunday in March to last Sunday in October
Fuel: Unknown fuel type or whether there is any fuel.

Runway information:
07/25 - 7996 x 148 feet< - >2437 x 45 meters

Recent METARs:
EHWO 181925Z AUTO 06012KT 020V090 9999 NCD 03/M06 Q1026 BLU
EHWO 181955Z AUTO 06012KT 010V090 9999 NCD 02/M05 Q1026 BLU
EHWO 182025Z AUTO 05012KT 010V080 9999 NCD 02/M05 Q1026 BLU

Airport on the map: